Airfield :
LOGIN :

Register | Disclaimer

   EN    FR    IT 

 










Legend :    VFR   Marginal VFR   IFR   Intensive IFR   Very Intensive IFR
Visi :
Ceiling :
>= 8 km
>= 3000ft
5 to 8 km
1000 to 3000 ft
1500m to 5 km
500 to 1000 ft
800 to 1500m
200 to 500 ft
< 800m
< 200 ft
Symbols :   Thunderstorms  Fog  Heavy snow  Heavy precipitations  Wind > 20 kt
SIGMETs :     Misc.  Thunderstorms  Icing  Turbulence  Mountain Waves  Volcanic Ashes







- Airport Elevation : 288 ft
- IATA code : BZZ


EGVN - RAF Brize Norton

CURRENT METAR :
  • 192250Z 21007KT 9999 FEW045 BKN080 08/05 Q1017 NOSIG

EXPIRED METARs :
  • 192150Z 21008KT 9999 FEW045 OVC080 08/06 Q1017 NOSIG
  • 192050Z 21009KT 9999 FEW044 BKN090 08/05 Q1017 NOSIG

TAF TAF EGVN
Valid from the 20 at 00:00 until the 21 at 00:00 UTC


192224Z 2000/2024 21010KT 9999 SCT035
PROB30 2003/2009 BKN014
TEMPO 2009/2017 SCT020
PROB30
TEMPO 2011/2015 21015G25KT
BECMG 2017/2020 BKN015
TEMPO 2020/2024 BKN010
No reported NOTAMs for that airfield.



MET'MAP, your aeronautical weather chart ! - Copyright ORBIFLY December 2007 - Disclaimer

ORBIFLY MET'MAP TEAM :

Programming & Development : Alexandra Zaïnal
Concept & Development : Baudouin d'Aumeries
Co-Development & Prog : Marc-Olivier Méhu
Technical & hardware support : Manuel Goepfert

Contact : metmap@orbifly.com




SOURCES & CREDITS :

   NOAA